Latest Coastal Weather Observations for Yarram Airport

IDV60701

Issued at 1:21 am EST Tuesday 24 September 2019 (issued every 10 minutes, with the page automatically refreshed every 10 minutes)

About coastal observations | Map of coastal stations | Coastal observations for VIC | Marine services | Other Formats
Station Details ID: 085151 Name: YARRAM AIRPORT Lat: -38.56 Lon: 146.75 Height: 17.9 m
Data from the previous 72 hours. | See also: Recent months at Yarram Airport
Date/Time
EST
Wind Sea
Height
m
Swell Vis
km
Cloud Weather Temp
°C
Press
hPa
Rain since
9am
mm
Dir  Spd
kts
Gust
kts
Height
m
Period
s
Dir
24/01:00am WNW 13 18 - - - - - - - 9.0 1026.5 1.0
24/12:30am WNW 9 11 - - - - - - - 8.4 1026.2 0.6
24/12:00am W 9 12 - - - - - - - 8.6 1026.2 0.6
 
Date/Time
EST
Wind Sea
Height
m
Swell Vis
km
Cloud Weather Temp
°C
Press
hPa
Rain since
9am
mm
Dir  Spd
kts
Gust
kts
Height
m
Period
s
Dir
23/11:30pm WNW 9 10 - - - - - - - 8.4 1026.1 0.6
23/11:00pm WNW 8 10 - - - - - - - 8.1 1026.1 0.6
23/10:30pm WNW 9 12 - - - - - - - 8.4 1026.2 0.6
23/10:00pm WNW 8 10 - - - - - - - 7.2 1026.2 0.6
23/09:30pm W 7 9 - - - - - - - 7.0 1026.1 0.6
23/09:00pm W 9 12 - - - - - - - 7.9 1026.1 0.6
23/08:30pm WNW 8 10 - - - - - - - 7.8 1026.1 0.6
23/08:00pm W 6 7 - - - - - - - 7.8 1026.0 0.6
23/07:30pm W 7 9 - - - - - - - 8.2 1025.6 0.6
23/07:00pm W 7 9 - - - - - - - 8.4 1025.2 0.6
23/06:30pm W 8 11 - - - - - - - 9.5 1024.9 0.6
23/06:00pm W 9 13 - - - - - - - 10.4 1024.5 0.6
23/05:30pm W 12 17 - - - - - - - 11.1 1024.0 0.6
23/05:00pm W 11 16 - - - - - - - 11.5 1023.8 0.6
23/04:30pm W 10 14 - - - - - - - 11.7 1023.6 0.6
23/04:10pm WSW 15 30 - - - - - - - 11.4 1023.4 0.6
23/04:00pm W 12 17 - - - - - - - 12.6 1023.2 0.6
23/03:30pm W 15 20 - - - - - - - 12.4 1023.1 0.6
23/03:00pm W 14 20 - - - - - - Rain 11.8 1022.9 0.4
23/02:30pm W 17 25 - - - - - - - 13.8 1022.4 0.0
23/02:00pm W 16 23 - - - - - - - 12.2 1022.5 0.0
23/01:30pm W 15 19 - - - - - - - 13.2 1022.4 0.0
23/01:00pm WSW 14 18 - - - - - - - 12.8 1022.4 0.0
23/12:30pm W 14 21 - - - - - - - 13.4 1022.2 0.0
23/12:00pm W 11 16 - - - - - - - 12.5 1022.2 0.0
23/11:30am W 12 18 - - - - - - - 12.4 1022.1 0.0
23/11:00am W 12 17 - - - - - - - 12.3 1022.1 0.0
23/10:30am WNW 14 19 - - - - - - - 12.7 1022.0 0.0
23/10:00am WNW 11 16 - - - - - - - 11.8 1022.1 0.0
23/09:30am WNW 14 18 - - - - - - - 11.8 1022.1 0.0
23/09:00am W 14 18 - - - - - - - 11.0 1022.0 0.0
23/08:30am W 9 13 - - - - - - - 11.0 1021.7 0.0
23/08:00am W 7 9 - - - - - - - 9.6 1021.5 0.0
23/07:30am WNW 6 7 - - - - - - - 9.4 1021.3 0.0
23/07:00am NNW 5 6 - - - - - - - 6.9 1021.0 0.0
23/06:30am NW 5 6 - - - - - - - 4.6 1020.8 0.0
23/06:00am NNW 3 6 - - - - - - - 3.5 1020.6 0.0
23/05:30am N 3 5 - - - - - - - 3.0 1020.4 0.0
23/05:00am CALM 0 0 - - - - - - - 2.4 1020.3 0.0
23/04:30am N 3 4 - - - - - - - 2.7 1020.3 0.0
23/04:00am N 5 5 - - - - - - - 3.2 1020.2 0.0
23/03:30am NW 5 6 - - - - - - - 3.7 1020.2 0.0
23/03:00am WSW 5 8 - - - - - - - 2.8 1020.5 0.0
23/02:30am N 4 5 - - - - - - - 3.0 1020.5 0.0
23/02:00am NNE 3 5 - - - - - - - 3.4 1020.8 0.0
23/01:30am NE 4 5 - - - - - - - 3.3 1021.1 0.0
23/01:00am CALM 0 0 - - - - - - - 3.7 1021.5 0.0
23/12:30am CALM 0 0 - - - - - - - 3.5 1021.8 0.0
23/12:00am N 4 7 - - - - - - - 3.9 1021.9 0.0
 
Date/Time
EST
Wind Sea
Height
m
Swell Vis
km
Cloud Weather Temp
°C
Press
hPa
Rain since
9am
mm
Dir  Spd
kts
Gust
kts
Height
m
Period
s
Dir
22/11:30pm NE 7 8 - - - - - - - 4.1 1022.0 0.0
22/11:00pm N 6 7 - - - - - - - 3.5 1022.2 0.0
22/10:30pm CALM 0 0 - - - - - - - 4.0 1022.4 0.0
22/10:00pm NNW 3 4 - - - - - - - 4.1 1022.6 0.0
22/09:30pm N 4 5 - - - - - - - 4.5 1022.8 0.0
22/09:00pm NNE 5 6 - - - - - - - 4.9 1022.9 0.0
22/08:30pm NNE 4 5 - - - - - - - 5.7 1023.1 0.0
22/08:00pm CALM 0 0 - - - - - - - 6.9 1023.0 0.0
22/07:30pm WNW 3 3 - - - - - - - 7.7 1022.8 0.0
22/07:00pm W 3 4 - - - - - - - 8.9 1022.6 0.0
22/06:30pm WSW 3 4 - - - - - - - 9.7 1022.3 0.0
22/06:00pm WSW 4 6 - - - - - - - 10.3 1022.1 0.0
22/05:30pm WSW 7 10 - - - - - - - 11.3 1021.8 0.0
22/05:00pm WSW 10 13 - - - - - - - 11.7 1021.5 0.0
22/04:30pm WSW 12 16 - - - - - - - 13.2 1021.2 0.0
22/04:00pm W 14 18 - - - - - - - 13.0 1021.0 0.0
22/03:30pm W 11 16 - - - - - - - 13.3 1020.9 0.0
22/03:00pm W 11 18 - - - - - - - 14.1 1020.8 0.0
22/02:30pm WNW 13 18 - - - - - - - 13.3 1020.9 0.0
22/02:00pm W 15 23 - - - - - - - 12.8 1021.2 0.0
22/01:30pm W 14 19 - - - - - - - 13.8 1021.3 0.0
22/01:00pm WNW 14 19 - - - - - - - 13.2 1021.4 0.0
22/12:30pm W 16 20 - - - - - - - 13.2 1021.6 0.0
22/12:00pm WNW 14 20 - - - - - - - 13.3 1021.9 0.0
22/11:30am W 12 16 - - - - - - - 13.1 1021.7 0.0
22/11:00am WNW 13 19 - - - - - - - 12.1 1021.8 0.0
22/10:30am WNW 14 19 - - - - - - - 12.8 1022.0 0.0
22/10:00am WNW 18 22 - - - - - - - 12.3 1021.8 0.0
22/09:30am WNW 15 21 - - - - - - - 11.8 1021.9 0.0
22/09:00am WNW 15 20 - - - - - - - 11.3 1021.9 2.4
22/08:30am WNW 13 17 - - - - - - - 11.1 1021.9 2.4
22/08:00am WNW 10 14 - - - - - - - 10.5 1021.6 2.4
22/07:30am WNW 9 12 - - - - - - - 9.6 1021.5 2.4
22/07:00am WNW 9 12 - - - - - - - 8.7 1021.1 2.4
22/06:30am NW 8 11 - - - - - - - 6.9 1020.7 2.4
22/06:00am N 6 7 - - - - - - - 4.6 1020.2 2.4
22/05:30am WNW 6 7 - - - - - - - 6.4 1019.7 2.4
22/05:00am W 8 10 - - - - - - - 7.2 1019.3 2.4
22/04:30am WNW 10 11 - - - - - - - 7.6 1018.9 2.4
22/04:00am WNW 9 11 - - - - - - - 8.3 1018.8 2.4
22/03:30am W 11 14 - - - - - - - 9.3 1018.6 2.4
22/03:00am WSW 11 14 - - - - - - - 9.4 1018.4 2.4
22/02:30am W 11 16 - - - - - - - 9.3 1018.3 2.4
22/02:00am SW 6 9 - - - - - - - 9.6 1018.2 2.4
22/01:30am W 4 6 - - - - - - - 9.2 1018.1 2.4
22/01:00am W 2 4 - - - - - - - 8.7 1017.9 2.4
22/12:30am NNW 3 4 - - - - - - - 8.3 1017.7 2.4
22/12:00am CALM 0 0 - - - - - - - 8.1 1017.4 2.4
 
Date/Time
EST
Wind Sea
Height
m
Swell Vis
km
Cloud Weather Temp
°C
Press
hPa
Rain since
9am
mm
Dir  Spd
kts
Gust
kts
Height
m
Period
s
Dir
21/11:30pm WSW 3 4 - - - - - - - 9.2 1017.2 2.4
21/11:00pm WSW 4 5 - - - - - - - 10.1 1017.2 2.4
21/10:30pm WSW 9 11 - - - - - - - 10.4 1016.8 2.4
21/10:00pm WSW 7 9 - - - - - - - 10.8 1016.7 2.4
21/09:30pm WSW 8 11 - - - - - - - 10.8 1016.4 2.4
21/09:00pm WSW 8 10 - - - - - - - 10.8 1015.9 2.4
21/08:30pm WSW 7 8 - - - - - - - 10.5 1015.7 2.4
21/08:00pm WSW 9 12 - - - - - - - 10.8 1015.3 2.4
21/07:30pm W 9 12 - - - - - - - 12.0 1014.7 2.4
21/07:00pm W 19 25 - - - - - - - 13.0 1013.8 2.4
21/06:30pm WNW 17 22 - - - - - - - 13.1 1013.0 2.4
21/06:00pm W 22 34 - - - - - - - 13.8 1012.2 2.4
21/05:36pm WNW 15 25 - - - - - - - 16.7 1011.0 2.4
21/05:30pm NW 15 21 - - - - - - - 16.4 1010.9 2.4
21/05:00pm NW 21 29 - - - - - - - 17.3 1009.7 2.4
21/04:30pm NW 18 26 - - - - - - - 17.8 1009.3 2.4
21/04:07pm NW 23 34 - - - - - - - 17.6 1008.9 2.4
21/04:00pm NW 19 28 - - - - - - - 18.1 1008.9 2.4
21/03:47pm NW 19 29 - - - - - - - 18.2 1008.5 2.4
21/03:30pm NW 21 29 - - - - - - - 18.2 1008.2 2.4
21/03:00pm NW 24 39 - - - - - - Recent precip. 18.1 1007.8 2.4
21/02:58pm NW 23 39 - - - - - - - 18.0 1007.7 2.4
21/02:40pm NNW 15 26 - - - - - - - 17.2 1007.6 2.4
21/02:30pm NNW 16 23 - - - - - - - 16.2 1007.8 2.4
21/02:03pm NW 19 28 - - - - - - - 15.8 1008.4 2.2
21/02:00pm NW 20 27 - - - - - - - 15.6 1008.2 2.2
21/01:40pm NW 21 38 - - - - - - - 17.4 1007.4 1.8
21/01:37pm NW 19 31 - - - - - - - 20.0 1006.7 1.6
21/01:30pm NW 18 24 - - - - - - - 21.3 1006.1 1.6
21/01:00pm NNW 15 23 - - - - - - - 22.9 1005.5 1.6
21/12:30pm N 20 31 - - - - - - - 22.0 1005.7 1.6
21/12:17pm N 16 27 - - - - - - - 20.3 1005.8 1.6
21/12:00pm N 13 21 - - - - - - - 19.8 1006.0 1.6
21/11:30am N 13 17 - - - - - - - 19.3 1006.4 1.6
21/11:00am NNE 8 9 - - - - - - - 19.0 1006.8 1.6
21/10:30am N 13 16 - - - - - - - 19.0 1007.2 0.6
21/10:00am N 11 16 - - - - - - - 22.9 1006.4 0.0
21/09:30am NNE 16 22 - - - - - - - 22.2 1006.0 0.0
21/09:00am NNE 12 19 - - - - - - - 22.6 1006.2 0.0
21/08:30am NNE 14 20 - - - - - - - 22.0 1006.3 0.0
21/08:00am NNE 13 17 - - - - - - - 20.9 1006.1 0.0
21/07:30am NNE 17 21 - - - - - - - 21.3 1006.4 0.0
21/07:00am N 20 26 - - - - - - - 21.8 1006.6 0.0
21/06:30am N 19 24 - - - - - - - 20.7 1006.1 0.0
21/06:00am NNE 11 16 - - - - - - - 18.2 1006.2 0.0
21/05:30am NE 9 11 - - - - - - - 16.7 1006.5 0.0
21/05:00am NNE 9 12 - - - - - - - 15.9 1006.9 0.0
21/04:30am ESE 6 7 - - - - - - - 13.4 1007.4 0.0
21/04:00am ESE 3 5 - - - - - - - 12.5 1007.7 0.0
21/03:30am ENE 4 7 - - - - - - - 13.1 1008.2 0.0
21/03:00am ENE 9 11 - - - - - - - 13.2 1008.6 0.0
21/02:30am E 7 9 - - - - - - - 12.2 1009.1 0.0
21/02:00am E 6 7 - - - - - - - 11.2 1009.6 0.0
21/01:30am CALM 0 0 - - - - - - - 9.2 1010.4 0.0

Other formats

Comma delimited format used in spreadsheet applications
http://www.bom.gov.au/fwo/IDV60701/IDV60701.95890.axf

JavaScript Object Notation format (JSON) in row-major order
http://www.bom.gov.au/fwo/IDV60701/IDV60701.95890.json

Data quality

Most of these data are generated automatically and are frequently updated. Quality checks on data are not normally performed. It is possible for incorrect values to appear. Refer to information at About Latest Weather Observations and please check the disclaimer before using these data.